createdAt,value
2022-12-25T00:01:22.468Z,77.50
2022-12-25T00:04:11.798Z,74.10
2022-12-25T00:06:53.318Z,71.15
2022-12-25T00:09:41.728Z,71.68
2022-12-25T00:12:24.333Z,71.22
2022-12-25T00:15:14.352Z,74.75
2022-12-25T00:18:03.427Z,72.10
2022-12-25T00:20:52.387Z,74.45
2022-12-25T00:23:35.666Z,71.43
2022-12-25T00:26:26.295Z,73.30
2022-12-25T00:29:08.621Z,70.75
2022-12-25T00:31:57.487Z,69.68
2022-12-25T00:34:39.721Z,68.45
2022-12-25T00:37:28.256Z,71.80
2022-12-25T00:40:10.698Z,68.00
2022-12-25T00:42:59.288Z,70.88
2022-12-25T00:45:47.705Z,66.78
2022-12-25T00:48:30.275Z,67.93
2022-12-25T00:51:20.604Z,65.35
2022-12-25T00:54:03.394Z,65.05
2022-12-25T00:56:51.668Z,66.53
2022-12-25T00:59:33.471Z,65.50
2022-12-25T01:02:24.744Z,65.55
2022-12-25T01:05:06.233Z,67.65
2022-12-25T01:07:48.605Z,67.68
2022-12-25T01:10:37.282Z,72.82
2022-12-25T01:13:19.511Z,70.25
2022-12-25T01:16:08.380Z,71.80
2022-12-25T01:18:50.612Z,70.75
2022-12-25T01:21:39.277Z,79.13
2022-12-25T01:24:21.493Z,78.72
2022-12-25T01:27:10.307Z,76.45
2022-12-25T01:29:52.588Z,80.40
2022-12-25T01:32:41.384Z,82.30
2022-12-25T01:35:29.594Z,81.72
2022-12-25T01:38:11.348Z,83.80
2022-12-25T01:41:00.251Z,78.07
2022-12-25T01:43:49.272Z,80.10
2022-12-25T01:46:33.479Z,79.28
2022-12-25T01:49:31.298Z,82.50
2022-12-25T01:52:24.329Z,81.47
2022-12-25T01:55:12.493Z,79.35
2022-12-25T01:58:01.268Z,81.80
2022-12-25T02:00:51.465Z,75.72
2022-12-25T02:03:33.677Z,76.22
2022-12-25T02:06:23.357Z,76.47
2022-12-25T02:09:12.275Z,74.10
2022-12-25T02:12:07.379Z,76.65
2022-12-25T02:14:52.303Z,74.97
2022-12-25T02:17:58.340Z,75.15
2022-12-25T02:21:05.103Z,72.90
2022-12-25T02:23:57.278Z,72.25
2022-12-25T02:27:01.586Z,70.68
2022-12-25T02:30:07.336Z,69.35
2022-12-25T02:33:27.949Z,69.35
2022-12-25T02:36:15.392Z,67.80
2022-12-25T02:39:33.316Z,66.40
2022-12-25T02:42:29.430Z,67.80
2022-12-25T02:45:36.895Z,63.45
2022-12-25T02:48:39.341Z,61.05
2022-12-25T02:51:50.207Z,57.38
2022-12-25T02:55:04.631Z,56.88
2022-12-25T02:58:15.247Z,55.30
2022-12-25T03:01:31.575Z,55.08
2022-12-25T03:04:35.458Z,54.92
2022-12-25T03:07:27.212Z,56.47
2022-12-25T03:10:39.585Z,54.13
2022-12-25T03:13:27.335Z,51.72
2022-12-25T03:16:27.888Z,54.28
2022-12-25T03:19:35.340Z,53.13
2022-12-25T03:22:43.495Z,54.95
2022-12-25T03:25:51.253Z,55.33
2022-12-25T03:28:33.563Z,57.38
2022-12-25T03:31:40.330Z,55.33
2022-12-25T03:35:06.560Z,57.83
2022-12-25T03:38:17.289Z,61.17
2022-12-25T03:41:33.387Z,62.72
2022-12-25T03:45:12.235Z,60.30
2022-12-25T03:48:35.324Z,64.63
2022-12-25T03:51:40.891Z,63.70
2022-12-25T03:54:52.659Z,68.97
2022-12-25T03:57:53.002Z,68.43
2022-12-25T04:01:00.566Z,69.53
2022-12-25T04:04:07.349Z,70.38
2022-12-25T04:07:07.556Z,69.40
2022-12-25T04:10:15.280Z,76.38
2022-12-25T04:13:15.532Z,76.85
2022-12-25T04:16:35.300Z,81.38
2022-12-25T04:19:42.277Z,81.28
2022-12-25T04:22:43.196Z,88.78
2022-12-25T04:25:50.422Z,89.07
2022-12-25T04:28:51.099Z,87.07
2022-12-25T04:31:58.368Z,89.28
2022-12-25T04:35:05.334Z,96.97
2022-12-25T04:37:47.529Z,94.63
2022-12-25T04:40:36.318Z,94.43
2022-12-25T04:43:25.334Z,97.63
2022-12-25T04:46:14.587Z,98.63
2022-12-25T04:48:56.237Z,103.85
2022-12-25T04:51:46.327Z,107.82
2022-12-25T04:54:28.624Z,106.25
2022-12-25T04:57:17.386Z,106.90
2022-12-25T04:59:59.786Z,106.93
2022-12-25T05:02:48.402Z,107.47
2022-12-25T05:05:30.595Z,105.15
2022-12-25T05:08:19.367Z,103.00
2022-12-25T05:11:08.692Z,99.20
2022-12-25T05:13:56.600Z,98.78
2022-12-25T05:16:38.317Z,98.57
2022-12-25T05:19:28.030Z,97.43
2022-12-25T05:22:10.283Z,96.95
2022-12-25T05:24:52.586Z,98.97
2022-12-25T05:27:41.278Z,97.75
2022-12-25T05:30:30.207Z,93.72
2022-12-25T05:33:12.627Z,97.28
2022-12-25T05:36:01.235Z,93.20
2022-12-25T05:38:44.594Z,90.03
2022-12-25T05:41:34.680Z,94.25
2022-12-25T05:44:29.155Z,92.25
2022-12-25T05:47:18.397Z,90.78
2022-12-25T05:50:00.689Z,88.88
2022-12-25T05:52:50.223Z,86.65
2022-12-25T05:55:39.372Z,89.93
2022-12-25T05:58:27.573Z,86.30
2022-12-25T06:01:10.405Z,82.82
2022-12-25T06:04:00.726Z,80.60
2022-12-25T06:06:42.361Z,81.65
2022-12-25T06:09:24.491Z,76.30
2022-12-25T06:12:13.351Z,79.68
2022-12-25T06:15:02.176Z,78.18
2022-12-25T06:17:51.339Z,76.88
2022-12-25T06:20:40.050Z,75.50
2022-12-25T06:23:23.452Z,77.90
2022-12-25T06:26:14.603Z,75.93
2022-12-25T06:28:57.305Z,79.13
2022-12-25T06:31:39.593Z,77.50
2022-12-25T06:34:28.147Z,77.20
2022-12-25T06:37:17.585Z,76.07
2022-12-25T06:39:59.355Z,73.68
2022-12-25T06:42:47.514Z,75.70
2022-12-25T06:45:36.483Z,79.13
2022-12-25T06:48:18.527Z,75.53
2022-12-25T06:51:07.411Z,76.75
2022-12-25T06:53:49.564Z,76.50
2022-12-25T06:56:39.390Z,76.35
2022-12-25T06:59:28.307Z,71.25
2022-12-25T07:02:24.766Z,76.72
2022-12-25T07:05:08.240Z,77.03
2022-12-25T07:07:50.473Z,76.88
2022-12-25T07:10:39.304Z,74.05
2022-12-25T07:13:28.615Z,70.97
2022-12-25T07:16:12.222Z,75.72
2022-12-25T07:19:00.637Z,76.00
2022-12-25T07:21:43.272Z,76.55
2022-12-25T07:24:32.614Z,78.25
2022-12-25T07:27:16.397Z,78.78
2022-12-25T07:30:04.605Z,82.80
2022-12-25T07:32:50.257Z,83.97
2022-12-25T07:35:38.595Z,86.30
2022-12-25T07:38:21.355Z,90.68
2022-12-25T07:41:09.642Z,92.35
2022-12-25T07:43:52.326Z,96.70
2022-12-25T07:46:40.531Z,95.72
2022-12-25T07:49:23.289Z,97.57
2022-12-25T07:52:05.649Z,99.43
2022-12-25T07:54:54.273Z,95.47
2022-12-25T07:57:42.591Z,92.53
2022-12-25T08:00:25.323Z,87.07
2022-12-25T08:03:17.092Z,90.22
2022-12-25T08:05:59.206Z,81.00
2022-12-25T08:08:47.595Z,73.47
2022-12-25T08:11:30.396Z,73.40
2022-12-25T08:14:12.460Z,73.33
2022-12-25T08:17:01.390Z,72.82
2022-12-25T08:19:50.191Z,68.32
2022-12-25T08:22:39.334Z,63.38
2022-12-25T08:25:28.387Z,65.20
2022-12-25T08:28:10.501Z,64.07
2022-12-25T08:30:59.296Z,65.13
2022-12-25T08:33:41.604Z,68.00
2022-12-25T08:36:31.237Z,66.32
2022-12-25T08:39:20.323Z,63.85
2022-12-25T08:42:08.541Z,63.55
2022-12-25T08:44:50.271Z,63.13
2022-12-25T08:47:38.499Z,60.88
2022-12-25T08:50:20.342Z,56.22
2022-12-25T08:53:08.548Z,55.75
2022-12-25T08:55:51.312Z,56.45
2022-12-25T08:58:40.503Z,57.35
2022-12-25T09:01:23.442Z,57.28
2022-12-25T09:04:11.614Z,58.55
2022-12-25T09:06:53.175Z,57.83
2022-12-25T09:09:43.344Z,60.73
2022-12-25T09:12:25.528Z,57.53
2022-12-25T09:15:15.344Z,57.55
2022-12-25T09:17:57.503Z,54.67
2022-12-25T09:20:46.262Z,55.63
2022-12-25T09:23:35.173Z,52.65
2022-12-25T09:26:25.646Z,53.38
2022-12-25T09:29:08.355Z,54.55
2022-12-25T09:31:56.521Z,54.47
2022-12-25T09:34:39.279Z,55.28
2022-12-25T09:37:28.309Z,53.80
2022-12-25T09:40:18.315Z,53.03
2022-12-25T09:43:08.485Z,54.63
2022-12-25T09:45:57.238Z,54.33
2022-12-25T09:48:43.619Z,53.50
2022-12-25T09:51:36.108Z,56.47
2022-12-25T09:54:36.594Z,54.25
2022-12-25T09:57:26.255Z,59.00
2022-12-25T10:00:08.599Z,55.25
2022-12-25T10:03:24.337Z,55.92
2022-12-25T10:06:34.514Z,55.67
2022-12-25T10:09:40.363Z,56.22
2022-12-25T10:12:35.605Z,55.05
2022-12-25T10:15:53.260Z,55.13
2022-12-25T10:19:08.164Z,57.13
2022-12-25T10:22:03.162Z,56.05
2022-12-25T10:24:54.488Z,56.22
2022-12-25T10:27:49.156Z,58.55
2022-12-25T10:30:33.804Z,57.60
2022-12-25T10:33:23.212Z,57.25
2022-12-25T10:36:07.944Z,61.67
2022-12-25T10:38:57.388Z,59.88
2022-12-25T10:42:06.671Z,63.17
2022-12-25T10:45:17.348Z,61.80
2022-12-25T10:48:15.567Z,62.55
2022-12-25T10:50:58.276Z,62.80
2022-12-25T10:53:51.655Z,64.90
2022-12-25T10:56:34.194Z,65.10
2022-12-25T10:59:23.235Z,65.43
2022-12-25T11:02:27.438Z,64.70
2022-12-25T11:05:19.567Z,66.25
2022-12-25T11:08:03.305Z,65.95
2022-12-25T11:10:52.111Z,66.18
2022-12-25T11:13:44.163Z,67.13
2022-12-25T11:16:41.161Z,68.28
2022-12-25T11:19:36.354Z,65.60
2022-12-25T11:22:20.315Z,66.70
2022-12-25T11:25:09.212Z,66.55
2022-12-25T11:28:14.524Z,66.07
2022-12-25T11:31:03.610Z,69.40
2022-12-25T11:33:54.375Z,67.80
2022-12-25T11:36:53.291Z,68.65
2022-12-25T11:39:41.386Z,66.63
2022-12-25T11:42:42.337Z,68.18
2022-12-25T11:45:50.223Z,68.57
2022-12-25T11:48:45.109Z,71.80
2022-12-25T11:51:28.582Z,70.72
2022-12-25T11:54:35.166Z,73.80
2022-12-25T11:57:19.756Z,70.50
2022-12-25T12:00:14.297Z,71.47
2022-12-25T12:03:10.558Z,70.25
2022-12-25T12:06:06.276Z,73.78
2022-12-25T12:08:49.668Z,75.75
2022-12-25T12:11:56.159Z,75.13
2022-12-25T12:14:56.245Z,77.22
2022-12-25T12:17:38.566Z,76.78
2022-12-25T12:20:49.286Z,76.53
2022-12-25T12:23:43.207Z,74.20
2022-12-25T12:26:35.109Z,77.03
2022-12-25T12:29:34.517Z,76.38
2022-12-25T12:32:43.233Z,81.53
2022-12-25T12:35:39.186Z,80.00
2022-12-25T12:38:35.175Z,79.43
2022-12-25T12:41:26.172Z,74.93
2022-12-25T12:44:12.691Z,77.57
2022-12-25T12:47:04.147Z,78.70
2022-12-25T12:49:46.596Z,74.82
2022-12-25T12:52:47.351Z,76.07
2022-12-25T12:55:43.562Z,79.75
2022-12-25T12:58:57.326Z,75.03
2022-12-25T13:01:59.673Z,77.43
2022-12-25T13:04:57.283Z,76.38
2022-12-25T13:07:45.853Z,81.43
2022-12-25T13:10:47.228Z,77.95
2022-12-25T13:13:43.669Z,80.82
2022-12-25T13:16:34.239Z,79.15
2022-12-25T13:19:26.950Z,76.45
2022-12-25T13:22:30.264Z,78.00
2022-12-25T13:25:22.577Z,77.87
2022-12-25T13:28:12.265Z,78.38
2022-12-25T13:30:54.603Z,77.88
2022-12-25T13:33:43.222Z,80.95
2022-12-25T13:36:25.562Z,79.80
2022-12-25T13:39:22.261Z,77.55
2022-12-25T13:42:07.569Z,77.75
2022-12-25T13:45:01.265Z,76.30
2022-12-25T13:47:54.926Z,76.47
2022-12-25T13:50:42.285Z,76.38
2022-12-25T13:53:30.588Z,75.03
2022-12-25T13:56:13.244Z,78.35
2022-12-25T13:58:55.417Z,78.22
2022-12-25T14:01:44.359Z,80.55
2022-12-25T14:04:34.978Z,82.40
2022-12-25T14:07:20.282Z,83.20
2022-12-25T14:10:11.504Z,80.13
2022-12-25T14:12:57.122Z,81.60
2022-12-25T14:15:41.170Z,78.57
2022-12-25T14:18:33.174Z,83.70
2022-12-25T14:21:31.658Z,82.95
2022-12-25T14:24:23.182Z,83.95
2022-12-25T14:27:25.203Z,83.57
2022-12-25T14:30:08.663Z,82.75
2022-12-25T14:33:01.271Z,84.60
2022-12-25T14:35:43.605Z,85.72
2022-12-25T14:38:41.215Z,85.38
2022-12-25T14:41:34.660Z,83.95
2022-12-25T14:44:46.255Z,89.87
2022-12-25T14:47:36.255Z,89.10
2022-12-25T14:50:32.210Z,85.15
2022-12-25T14:53:29.524Z,86.40
2022-12-25T14:56:13.149Z,87.10
2022-12-25T14:59:11.159Z,90.50
2022-12-25T15:02:00.431Z,90.15
2022-12-25T15:04:51.462Z,91.30
2022-12-25T15:07:39.149Z,92.68
2022-12-25T15:10:58.824Z,92.45
2022-12-25T15:13:31.097Z,93.35
2022-12-25T15:16:22.419Z,93.95
2022-12-25T15:19:12.344Z,93.10
2022-12-25T15:22:01.485Z,95.50
2022-12-25T15:24:43.241Z,93.25
2022-12-25T15:27:31.443Z,96.80
2022-12-25T15:30:15.261Z,96.47
2022-12-25T15:32:57.417Z,93.03
2022-12-25T15:35:47.142Z,93.97
2022-12-25T15:38:29.363Z,91.35
2022-12-25T15:41:18.314Z,91.55
2022-12-25T15:44:06.564Z,86.90
2022-12-25T15:47:02.559Z,85.03
2022-12-25T15:49:51.575Z,83.65
2022-12-25T15:52:33.279Z,85.00
2022-12-25T15:55:16.535Z,85.25
2022-12-25T15:58:05.225Z,85.13
2022-12-25T16:00:54.243Z,80.18
2022-12-25T16:03:36.582Z,81.55
2022-12-25T16:06:26.108Z,84.18
2022-12-25T16:09:15.096Z,83.22
2022-12-25T16:12:04.288Z,84.53
2022-12-25T16:14:53.089Z,81.70
2022-12-25T16:17:41.486Z,80.53
2022-12-25T16:20:24.113Z,82.45
2022-12-25T16:23:12.493Z,83.03
2022-12-25T16:25:55.088Z,82.38
2022-12-25T16:28:44.232Z,84.40
2022-12-25T16:31:26.566Z,84.57
2022-12-25T16:34:16.195Z,85.45
2022-12-25T16:36:58.467Z,83.28
2022-12-25T16:39:47.216Z,83.55
2022-12-25T16:42:29.429Z,86.50
2022-12-25T16:45:18.200Z,82.88
2022-12-25T16:48:06.495Z,82.95
2022-12-25T16:50:50.200Z,83.25
2022-12-25T16:53:39.094Z,87.53
2022-12-25T16:56:24.135Z,85.45
2022-12-25T16:59:14.116Z,86.18
2022-12-25T17:01:57.048Z,84.70
2022-12-25T17:04:47.153Z,84.72
2022-12-25T17:07:29.362Z,84.97
2022-12-25T17:10:21.237Z,86.63
2022-12-25T17:13:03.460Z,90.22
2022-12-25T17:15:52.161Z,89.05
2022-12-25T17:18:34.373Z,90.72
2022-12-25T17:21:24.183Z,89.70
2022-12-25T17:24:21.091Z,90.97
2022-12-25T17:27:10.173Z,91.85
2022-12-25T17:29:52.480Z,92.75
2022-12-25T17:32:42.234Z,91.07
2022-12-25T17:35:25.572Z,98.63
2022-12-25T17:38:14.055Z,93.07
2022-12-25T17:41:05.043Z,94.63
2022-12-25T17:43:55.245Z,96.30
2022-12-25T17:46:50.142Z,96.70
2022-12-25T17:49:39.039Z,96.85
2022-12-25T17:52:29.506Z,94.97
2022-12-25T17:55:18.444Z,94.35
2022-12-25T17:58:01.532Z,97.72
2022-12-25T18:00:49.409Z,94.20
2022-12-25T18:03:32.336Z,95.15
2022-12-25T18:06:23.532Z,94.97
2022-12-25T18:09:07.112Z,92.05
2022-12-25T18:11:56.214Z,94.00
2022-12-25T18:14:38.474Z,92.85
2022-12-25T18:17:27.040Z,89.85
2022-12-25T18:20:10.524Z,88.68
2022-12-25T18:22:59.287Z,91.10
2022-12-25T18:25:41.586Z,87.25
2022-12-25T18:28:30.238Z,82.47
2022-12-25T18:31:21.522Z,82.00
2022-12-25T18:34:10.216Z,77.95
2022-12-25T18:36:53.439Z,79.38
2022-12-25T18:39:42.146Z,76.90
2022-12-25T18:42:44.127Z,78.10
2022-12-25T18:45:33.116Z,78.50
2022-12-25T18:48:21.479Z,79.47
2022-12-25T18:51:24.218Z,83.88
2022-12-25T18:54:12.395Z,82.60
2022-12-25T18:56:55.564Z,85.05
2022-12-25T18:59:45.050Z,91.93
2022-12-25T19:02:28.324Z,90.07
2022-12-25T19:05:17.414Z,88.10
2022-12-25T19:07:59.125Z,88.05
2022-12-25T19:10:49.070Z,87.13
2022-12-25T19:13:31.895Z,90.78
2022-12-25T19:16:22.159Z,90.82
2022-12-25T19:19:11.998Z,93.25
2022-12-25T19:22:02.425Z,89.70
2022-12-25T19:24:45.248Z,92.50
2022-12-25T19:27:27.329Z,92.47
2022-12-25T19:30:17.044Z,93.97
2022-12-25T19:32:59.447Z,95.93
2022-12-25T19:35:49.195Z,97.50
2022-12-25T19:38:38.072Z,95.22
2022-12-25T19:41:32.215Z,95.13
2022-12-25T19:44:20.398Z,94.95
2022-12-25T19:47:15.111Z,95.25
2022-12-25T19:50:04.155Z,97.22
2022-12-25T19:52:53.025Z,98.10
2022-12-25T19:55:41.470Z,96.03
2022-12-25T19:58:23.106Z,95.90
2022-12-25T20:01:17.226Z,98.85
2022-12-25T20:03:59.477Z,100.38
2022-12-25T20:06:50.157Z,96.43
2022-12-25T20:09:33.687Z,99.47
2022-12-25T20:12:24.069Z,99.72
2022-12-25T20:15:13.190Z,99.72
2022-12-25T20:18:02.623Z,98.95
2022-12-25T20:20:44.093Z,98.25
2022-12-25T20:23:32.347Z,99.13
2022-12-25T20:26:15.196Z,97.68
2022-12-25T20:28:58.445Z,102.75
2022-12-25T20:31:49.197Z,100.15
2022-12-25T20:34:37.373Z,101.10
2022-12-25T20:37:20.055Z,100.00
2022-12-25T20:40:09.058Z,102.43
2022-12-25T20:42:58.031Z,104.90
2022-12-25T20:45:43.681Z,107.55
2022-12-25T20:48:33.233Z,109.55
2022-12-25T20:51:25.501Z,107.30
2022-12-25T20:54:08.237Z,105.90
2022-12-25T20:56:56.458Z,105.53
2022-12-25T20:59:39.182Z,107.57
2022-12-25T21:02:34.263Z,106.43
2022-12-25T21:05:24.188Z,105.65
2022-12-25T21:08:06.403Z,112.18
2022-12-25T21:10:58.071Z,112.88
2022-12-25T21:13:49.092Z,107.82
2022-12-25T21:16:33.801Z,111.47
2022-12-25T21:19:23.176Z,113.00
2022-12-25T21:22:05.420Z,113.75
2022-12-25T21:24:56.187Z,111.82
2022-12-25T21:27:38.387Z,111.63
2022-12-25T21:30:27.138Z,115.95
2022-12-25T21:33:34.134Z,111.68
2022-12-25T21:36:23.526Z,112.20
2022-12-25T21:39:08.040Z,110.63
2022-12-25T21:41:50.308Z,112.13
2022-12-25T21:44:39.275Z,110.82
2022-12-25T21:48:02.543Z,112.53
2022-12-25T21:55:00.785Z,109.88
2022-12-25T21:57:42.089Z,111.35
2022-12-25T22:00:31.808Z,114.32
2022-12-25T22:03:23.372Z,113.95
2022-12-25T22:06:23.922Z,116.70
2022-12-25T22:09:16.140Z,112.10
2022-12-25T22:12:16.867Z,113.90
2022-12-25T22:15:10.772Z,114.97
2022-12-25T22:18:10.508Z,115.28
2022-12-25T22:20:58.866Z,114.97
2022-12-25T22:23:41.221Z,113.60
2022-12-25T22:26:29.774Z,112.05
2022-12-25T22:29:11.298Z,113.82
2022-12-25T22:31:59.817Z,110.68
2022-12-25T22:34:42.327Z,111.30
2022-12-25T22:37:31.024Z,113.95
2022-12-25T22:40:15.420Z,112.10
2022-12-25T22:43:05.014Z,109.68
2022-12-25T22:45:48.344Z,109.10
2022-12-25T22:48:40.154Z,107.82
2022-12-25T22:51:22.459Z,107.82
2022-12-25T22:54:11.105Z,110.10
2022-12-25T22:57:02.022Z,108.40
2022-12-25T22:59:52.441Z,105.88
2022-12-25T23:02:35.415Z,102.68
2022-12-25T23:05:17.396Z,101.80
2022-12-25T23:08:07.137Z,101.47
2022-12-25T23:10:56.023Z,99.05
2022-12-25T23:14:02.995Z,98.78
2022-12-25T23:16:52.381Z,100.40
2022-12-25T23:19:53.090Z,99.68
2022-12-25T23:22:53.444Z,102.03
2022-12-25T23:26:01.100Z,102.63
2022-12-25T23:29:09.905Z,102.95
2022-12-25T23:32:01.357Z,99.68
2022-12-25T23:34:45.650Z,106.30
2022-12-25T23:37:34.091Z,111.10
2022-12-25T23:40:22.976Z,107.70
2022-12-25T23:43:06.407Z,109.82
2022-12-25T23:45:55.088Z,109.32
2022-12-25T23:48:52.013Z,109.50
2022-12-25T23:51:43.000Z,112.68
2022-12-25T23:54:28.327Z,108.82
2022-12-25T23:57:17.108Z,111.25
2022-12-25T23:59:59.648Z,114.65
